Reklama

Seznam meteostanic a jejich METAR

Vyhledat místa podle abecedy:
A B C D E F G H I J K L M N O P Q R S T U V W X Y Z

Filtrovat:

ID stanice:
a/nebo
Název místa (fulltext):
 
Místo (ID)Naposledy načteno 
Holešov (Holesov) 19.11.2018 00:00 UTC Zobrazit data
Místo: Holešov
Teplota: 0 °C (pocitová: -9.2 °C)
Vítr: 5 m/s z(e) 30°
Počasí: zataženo
Dohlednost: 5 km
Zákl. oblačnosti: 8/8 810 m
Vlhkost: 80%
Hamburg (EDDH) 19.11.2018 00:50 UTC Zobrazit METAR
EDDH 190050Z 02007KT 340V050 9999 FEW009 BKN032 05/04 Q1028 TEMPO 4000 -DZ BKN007
Hannover (EDDV) 19.11.2018 00:50 UTC Zobrazit METAR
EDDV 190050Z 04009KT 9999 FEW008 BKN035 05/04 Q1025
Hanoi (VVNB) 19.11.2018 01:00 UTC Zobrazit METAR
VVNB 190100Z 07009KT 9999 BKN018 21/20 Q1017 NOSIG
Harare (FVHA) 13.09.2018 03:00 UTC Zobrazit METAR
FVHA 130300Z 07008KT CAVOK 14/07 Q1022 NOSIG
Havana (MUHA) 19.11.2018 00:55 UTC Zobrazit METAR
MUHA 190055Z 02005KT 9999 SCT025 25/23 Q1017
Helsinki (EFHK) 19.11.2018 00:50 UTC Zobrazit METAR
EFHK 190050Z 03008KT 9999 OVC026 01/M04 Q1038 NOSIG
Hong Kong (VHHH) 19.11.2018 01:00 UTC Zobrazit METAR
VHHH 190100Z 01008KT 340V050 9999 FEW025 22/14 Q1019 NOSIG
Honiara (AGGH) 19.11.2018 01:00 UTC Zobrazit METAR
AGGH 190100Z 36007KT 9999 HZ FEW019 SCT300 31/25 Q1009
Horta (LPHR) 18.11.2018 21:00 UTC Zobrazit METAR
LPHR 182100Z VRB03KT 9999 FEW015 16/12 Q1012
Reklama

Počasí na Váš email

Emaily jsou bez reklamy a bez spamu



Odhlásit newsletter

Reklama


Lunární kalendář

  • 23.11.
  • 30.11.
  • 07.12.
  • 15.12.



Reklama


Reklama
Povinné ručení
Reklama



Reklama